createdAt,value
2023-01-09T00:00:13.610Z,97977.72
2023-01-09T00:00:55.609Z,97963.91
2023-01-09T00:01:40.817Z,97976.25
2023-01-09T00:02:22.885Z,97968.75
2023-01-09T00:03:04.535Z,97972.59
2023-01-09T00:03:46.455Z,97972.38
2023-01-09T00:04:28.095Z,97938.06
2023-01-09T00:05:14.789Z,97966.72
2023-01-09T00:05:56.837Z,97954.81
2023-01-09T00:06:40.224Z,97969.16
2023-01-09T00:07:21.957Z,97969.75
2023-01-09T00:08:03.694Z,97946.00
2023-01-09T00:08:45.350Z,97961.59
2023-01-09T00:09:27.101Z,97958.59
2023-01-09T00:10:10.598Z,97957.78
2023-01-09T00:10:52.319Z,97961.16
2023-01-09T00:11:33.953Z,97968.88
2023-01-09T00:12:15.589Z,97970.69
2023-01-09T00:12:57.200Z,97960.59
2023-01-09T00:13:39.216Z,97955.88
2023-01-09T00:14:22.843Z,97953.09
2023-01-09T00:15:05.325Z,97942.53
2023-01-09T00:15:48.834Z,97946.91
2023-01-09T00:16:31.033Z,97949.31
2023-01-09T00:17:12.719Z,97923.59
2023-01-09T00:17:54.457Z,97941.59
2023-01-09T00:18:37.010Z,97947.63
2023-01-09T00:19:18.630Z,97943.16
2023-01-09T00:20:00.391Z,97952.63
2023-01-09T00:20:42.039Z,97945.72
2023-01-09T00:21:23.742Z,97949.59
2023-01-09T00:22:06.417Z,97948.66
2023-01-09T00:22:48.043Z,97946.06
2023-01-09T00:23:30.356Z,97951.22
2023-01-09T00:24:11.953Z,97947.38
2023-01-09T00:24:53.582Z,97942.75
2023-01-09T00:25:35.693Z,97942.63
2023-01-09T00:26:19.644Z,97942.41
2023-01-09T00:27:01.306Z,97940.19
2023-01-09T00:27:42.955Z,97943.03
2023-01-09T00:28:24.570Z,97929.25
2023-01-09T00:29:06.494Z,97922.84
2023-01-09T00:29:49.469Z,97927.53
2023-01-09T00:30:31.175Z,97933.56
2023-01-09T00:31:13.587Z,97921.66
2023-01-09T00:31:55.184Z,97938.06
2023-01-09T00:32:36.912Z,97908.34
2023-01-09T00:33:19.364Z,97928.13
2023-01-09T00:34:05.177Z,97936.03
2023-01-09T00:34:47.434Z,97933.41
2023-01-09T00:35:29.377Z,97909.53
2023-01-09T00:36:11.836Z,97934.00
2023-01-09T00:36:55.263Z,97928.13
2023-01-09T00:37:36.872Z,97932.38
2023-01-09T00:38:18.450Z,97913.78
2023-01-09T00:39:00.053Z,97922.03
2023-01-09T00:39:42.317Z,97917.19
2023-01-09T00:40:23.959Z,97921.44
2023-01-09T00:41:08.942Z,97915.22
2023-01-09T00:41:54.907Z,97917.19
2023-01-09T00:42:37.564Z,97913.38
2023-01-09T00:43:20.202Z,97922.53
2023-01-09T00:44:08.146Z,97928.75
2023-01-09T00:44:54.132Z,97917.41
2023-01-09T00:45:35.782Z,97859.19
2023-01-09T00:46:20.948Z,97916.81
2023-01-09T00:47:08.230Z,97889.13
2023-01-09T00:47:52.609Z,97890.53
2023-01-09T00:48:37.382Z,97916.97
2023-01-09T00:49:19.530Z,97914.91
2023-01-09T00:50:07.746Z,97920.38
2023-01-09T00:50:49.381Z,97893.28
2023-01-09T00:51:31.219Z,97907.00
2023-01-09T00:52:13.540Z,97915.09
2023-01-09T00:52:59.568Z,97913.47
2023-01-09T00:53:43.051Z,97914.28
2023-01-09T00:54:25.023Z,97890.41
2023-01-09T00:55:07.850Z,97915.69
2023-01-09T00:55:51.472Z,97907.81
2023-01-09T00:56:34.631Z,97912.66
2023-01-09T00:57:16.611Z,97904.66
2023-01-09T00:57:58.262Z,97856.75
2023-01-09T00:58:39.970Z,97848.63
2023-01-09T00:59:22.551Z,97892.75
2023-01-09T01:00:04.985Z,97910.94
2023-01-09T01:00:46.753Z,97916.38
2023-01-09T01:01:28.597Z,97893.31
2023-01-09T01:02:10.690Z,97907.41
2023-01-09T01:02:52.505Z,97892.88
2023-01-09T01:03:34.362Z,97909.84
2023-01-09T01:04:34.757Z,97912.88
2023-01-09T01:05:35.316Z,97911.84
2023-01-09T01:06:35.635Z,97897.53
2023-01-09T01:07:36.089Z,97914.31
2023-01-09T01:08:19.308Z,97913.16
2023-01-09T01:09:01.009Z,97909.94
2023-01-09T01:09:42.830Z,97911.81
2023-01-09T01:10:25.823Z,97898.28
2023-01-09T01:11:10.276Z,97896.84
2023-01-09T01:11:51.898Z,97898.28
2023-01-09T01:12:33.569Z,97909.63
2023-01-09T01:13:15.292Z,97904.97
2023-01-09T01:13:56.901Z,97911.66
2023-01-09T01:14:39.178Z,97918.09
2023-01-09T01:15:21.900Z,97908.34
2023-01-09T01:16:05.597Z,97903.88
2023-01-09T01:16:47.273Z,97911.59
2023-01-09T01:17:28.914Z,97902.44
2023-01-09T01:18:12.047Z,97900.38
2023-01-09T01:18:53.795Z,97904.66
2023-01-09T01:19:35.812Z,97898.94
2023-01-09T01:20:19.063Z,97907.63
2023-01-09T01:21:00.699Z,97900.97
2023-01-09T01:21:42.306Z,97902.59
2023-01-09T01:22:26.844Z,97905.44
2023-01-09T01:23:08.914Z,97904.91
2023-01-09T01:23:50.539Z,97912.78
2023-01-09T01:24:32.157Z,97904.69
2023-01-09T01:25:17.117Z,97910.72
2023-01-09T01:26:08.339Z,97916.38
2023-01-09T01:26:50.067Z,97907.41
2023-01-09T01:27:31.664Z,97911.69
2023-01-09T01:28:13.363Z,97905.38
2023-01-09T01:28:54.955Z,97913.28
2023-01-09T01:29:36.615Z,97904.44
2023-01-09T01:30:19.768Z,97905.59
2023-01-09T01:31:01.953Z,97897.75
2023-01-09T01:31:43.588Z,97888.25
2023-01-09T01:32:25.200Z,97907.28
2023-01-09T01:33:06.897Z,97903.03
2023-01-09T01:33:48.485Z,97882.63
2023-01-09T01:34:30.711Z,97891.66
2023-01-09T01:35:13.097Z,97902.59
2023-01-09T01:36:07.987Z,97904.78
2023-01-09T01:36:49.590Z,97890.84
2023-01-09T01:37:31.555Z,97901.72
2023-01-09T01:38:13.204Z,97903.31
2023-01-09T01:38:54.952Z,97886.75
2023-01-09T01:39:36.617Z,97884.16
2023-01-09T01:40:18.431Z,97901.56
2023-01-09T01:41:02.203Z,97894.88
2023-01-09T01:41:43.822Z,97892.28
2023-01-09T01:42:25.837Z,97906.25
2023-01-09T01:43:12.048Z,97904.66
2023-01-09T01:44:02.830Z,97911.09
2023-01-09T01:45:01.050Z,97915.22
2023-01-09T01:45:42.860Z,97917.03
2023-01-09T01:46:24.653Z,97907.53
2023-01-09T01:47:06.426Z,97917.25
2023-01-09T01:47:50.817Z,97911.22
2023-01-09T01:48:32.463Z,97916.00
2023-01-09T01:49:20.176Z,97914.19
2023-01-09T01:50:24.819Z,97911.97
2023-01-09T01:51:07.846Z,97919.00
2023-01-09T01:51:53.703Z,97919.81
2023-01-09T01:52:37.347Z,97907.72
2023-01-09T01:53:20.968Z,97919.81
2023-01-09T01:54:08.151Z,97913.72
2023-01-09T01:54:49.928Z,97882.00
2023-01-09T01:55:34.064Z,97915.34
2023-01-09T01:56:19.965Z,97913.97
2023-01-09T01:57:03.870Z,97898.16
2023-01-09T01:57:49.101Z,97917.41
2023-01-09T01:58:31.210Z,97917.78
2023-01-09T01:59:23.230Z,97860.25
2023-01-09T02:00:05.667Z,97912.78
2023-01-09T02:00:50.827Z,97922.47
2023-01-09T02:01:33.833Z,97914.00
2023-01-09T02:02:18.966Z,97912.81
2023-01-09T02:03:01.870Z,97906.72
2023-01-09T02:03:44.944Z,97908.59
2023-01-09T02:04:27.218Z,97905.72
2023-01-09T02:05:09.726Z,97925.16
2023-01-09T02:05:51.389Z,97923.72
2023-01-09T02:06:34.581Z,97926.72
2023-01-09T02:07:16.350Z,97932.81
2023-01-09T02:07:58.001Z,97929.34
2023-01-09T02:08:39.648Z,97928.13
2023-01-09T02:09:22.931Z,97915.22
2023-01-09T02:10:04.935Z,97930.56
2023-01-09T02:10:47.520Z,97924.66
2023-01-09T02:11:29.149Z,97917.78
2023-01-09T02:12:25.912Z,97923.66
2023-01-09T02:13:09.197Z,97919.19
2023-01-09T02:13:51.822Z,97909.50
2023-01-09T02:14:33.469Z,97921.81
2023-01-09T02:15:15.969Z,97913.28
2023-01-09T02:16:15.634Z,97920.00
2023-01-09T02:17:03.188Z,97922.63
2023-01-09T02:18:15.462Z,97922.63
2023-01-09T02:19:20.830Z,97924.66
2023-01-09T02:20:27.095Z,97918.78
2023-01-09T02:21:17.468Z,97921.44
2023-01-09T02:22:07.611Z,97917.34
2023-01-09T02:23:26.622Z,97922.00
2023-01-09T02:24:30.880Z,97917.06
2023-01-09T02:25:27.354Z,97908.91
2023-01-09T02:26:36.243Z,97911.34
2023-01-09T02:27:56.452Z,97902.81
2023-01-09T02:28:40.934Z,97910.16
2023-01-09T02:29:56.806Z,97900.63
2023-01-09T02:30:44.706Z,97905.13
2023-01-09T02:31:41.991Z,97901.72
2023-01-09T02:32:49.719Z,97893.66
2023-01-09T02:33:52.576Z,97900.03
2023-01-09T02:34:51.148Z,97898.78
2023-01-09T02:35:47.952Z,97887.56
2023-01-09T02:36:57.219Z,97892.41
2023-01-09T02:38:12.464Z,97883.81
2023-01-09T02:38:59.763Z,97882.78
2023-01-09T02:39:57.189Z,97877.38
2023-01-09T02:41:03.552Z,97887.06
2023-01-09T02:41:58.807Z,97896.16
2023-01-09T02:42:42.952Z,97879.84
2023-01-09T02:43:26.218Z,97904.19
2023-01-09T02:44:28.066Z,97901.16
2023-01-09T02:45:10.179Z,97911.56
2023-01-09T02:45:51.829Z,97873.38
2023-01-09T02:46:33.945Z,97901.41
2023-01-09T02:47:15.468Z,97905.25
2023-01-09T02:47:57.166Z,97903.38
2023-01-09T02:48:45.526Z,97908.66
2023-01-09T02:49:27.611Z,97916.78
2023-01-09T02:50:19.430Z,97908.91
2023-01-09T02:51:35.630Z,97904.88
2023-01-09T02:52:48.577Z,97903.03
2023-01-09T02:53:45.302Z,97903.03
2023-01-09T02:54:51.135Z,97867.88
2023-01-09T02:56:09.652Z,97896.13
2023-01-09T02:57:09.798Z,97896.38
2023-01-09T02:57:57.387Z,97911.63
2023-01-09T02:59:06.854Z,97910.22
2023-01-09T03:00:14.536Z,97908.41
2023-01-09T03:01:14.372Z,97906.13
2023-01-09T03:02:04.417Z,97907.47
2023-01-09T03:03:04.690Z,97889.69
2023-01-09T03:03:58.106Z,97903.59
2023-01-09T03:04:56.060Z,97907.25
2023-01-09T03:05:44.625Z,97910.69
2023-01-09T03:06:32.010Z,97915.38
2023-01-09T03:07:16.639Z,97910.31
2023-01-09T03:08:08.389Z,97888.94
2023-01-09T03:08:57.181Z,97917.25
2023-01-09T03:09:41.418Z,97915.91
2023-01-09T03:10:31.953Z,97917.50
2023-01-09T03:11:13.774Z,97920.16
2023-01-09T03:12:21.336Z,97923.81
2023-01-09T03:13:03.567Z,97920.41
2023-01-09T03:13:47.344Z,97931.34
2023-01-09T03:14:32.528Z,97906.09
2023-01-09T03:15:18.014Z,97926.06
2023-01-09T03:16:05.361Z,97934.81
2023-01-09T03:16:52.104Z,97927.69
2023-01-09T03:17:38.510Z,97934.59
2023-01-09T03:18:24.508Z,97927.09
2023-01-09T03:19:11.420Z,97932.38
2023-01-09T03:19:54.928Z,97932.75
2023-01-09T03:20:38.700Z,97942.53
2023-01-09T03:21:22.301Z,97942.72
2023-01-09T03:22:04.245Z,97943.34
2023-01-09T03:22:54.514Z,97937.88
2023-01-09T03:23:55.884Z,97951.47
2023-01-09T03:24:38.847Z,97945.41
2023-01-09T03:25:20.957Z,97962.84
2023-01-09T03:26:02.612Z,97956.56
2023-01-09T03:26:44.474Z,97951.69
2023-01-09T03:27:26.127Z,97961.38
2023-01-09T03:28:18.565Z,97960.50
2023-01-09T03:29:00.623Z,97947.81
2023-01-09T03:29:42.398Z,97970.44
2023-01-09T03:30:25.132Z,97974.09
2023-01-09T03:31:06.804Z,97979.16
2023-01-09T03:31:48.568Z,97989.50
2023-01-09T03:32:30.292Z,97964.59
2023-01-09T03:33:11.934Z,97962.16
2023-01-09T03:33:53.839Z,97982.25
2023-01-09T03:34:35.481Z,97979.22
2023-01-09T03:35:17.108Z,97895.94
2023-01-09T03:35:58.850Z,97961.72
2023-01-09T03:36:40.624Z,97984.59
2023-01-09T03:37:22.258Z,97983.59
2023-01-09T03:38:04.115Z,97975.72
2023-01-09T03:38:46.220Z,98004.13
2023-01-09T03:39:27.891Z,97953.56
2023-01-09T03:40:10.321Z,98002.56
2023-01-09T03:40:51.990Z,97979.53
2023-01-09T03:41:33.607Z,97986.59
2023-01-09T03:42:15.223Z,98001.44
2023-01-09T03:42:56.851Z,98014.03
2023-01-09T03:43:38.590Z,98020.53
2023-01-09T03:44:20.280Z,98016.50
2023-01-09T03:45:02.000Z,98012.47
2023-01-09T03:45:45.033Z,98024.47
2023-01-09T03:46:26.646Z,98015.56
2023-01-09T03:47:08.220Z,98028.59
2023-01-09T03:47:52.267Z,98028.97
2023-01-09T03:48:34.562Z,98045.03
2023-01-09T03:49:17.593Z,98038.59
2023-01-09T03:49:59.257Z,98041.81
2023-01-09T03:50:45.701Z,98028.50
2023-01-09T03:51:27.284Z,98047.94
2023-01-09T03:52:08.963Z,98051.78
2023-01-09T03:52:50.567Z,98047.75
2023-01-09T03:53:32.160Z,98048.38
2023-01-09T03:54:13.838Z,98056.31
2023-01-09T03:54:55.443Z,98057.72
2023-01-09T03:55:37.052Z,98048.03
2023-01-09T03:56:18.623Z,98048.84
2023-01-09T03:57:00.162Z,98013.22
2023-01-09T03:57:41.757Z,98039.91
2023-01-09T03:58:24.048Z,98050.91
2023-01-09T03:59:05.649Z,98050.31
2023-01-09T03:59:47.300Z,98053.31
2023-01-09T04:00:28.921Z,98068.13
2023-01-09T04:01:12.791Z,98066.50
2023-01-09T04:01:54.586Z,98073.22
2023-01-09T04:02:36.622Z,98070.78
2023-01-09T04:03:20.804Z,98070.78
2023-01-09T04:04:02.447Z,98061.25
2023-01-09T04:04:44.240Z,98071.19
2023-01-09T04:05:25.849Z,98073.84
2023-01-09T04:06:07.679Z,98062.88
2023-01-09T04:06:49.310Z,98079.50
2023-01-09T04:07:30.943Z,98076.88
2023-01-09T04:08:13.199Z,98083.41
2023-01-09T04:08:54.799Z,98076.06
2023-01-09T04:09:36.568Z,98074.69
2023-01-09T04:10:18.187Z,98053.81
2023-01-09T04:10:59.794Z,98071.63
2023-01-09T04:11:41.400Z,98086.41
2023-01-09T04:12:23.016Z,98076.09
2023-01-09T04:13:04.592Z,98095.53
2023-01-09T04:13:46.193Z,98090.88
2023-01-09T04:14:27.785Z,98095.53
2023-01-09T04:15:09.823Z,98091.09
2023-01-09T04:15:51.439Z,98108.31
2023-01-09T04:16:33.215Z,98112.19
2023-01-09T04:17:16.513Z,98111.75
2023-01-09T04:17:58.265Z,98113.59
2023-01-09T04:18:39.833Z,98113.78
2023-01-09T04:19:21.992Z,98119.69
2023-01-09T04:20:04.182Z,98098.19
2023-01-09T04:20:49.020Z,98108.31
2023-01-09T04:21:30.656Z,98108.13
2023-01-09T04:22:12.330Z,98119.06
2023-01-09T04:22:53.935Z,98121.50
2023-01-09T04:23:35.551Z,98120.25
2023-01-09T04:24:17.296Z,98107.09
2023-01-09T04:24:58.889Z,98123.72
2023-01-09T04:25:40.453Z,98117.63
2023-01-09T04:26:22.034Z,98126.13
2023-01-09T04:27:03.821Z,98124.53
2023-01-09T04:27:45.394Z,98127.97
2023-01-09T04:28:27.049Z,98124.53
2023-01-09T04:29:08.627Z,98123.31
2023-01-09T04:29:50.227Z,98123.91
2023-01-09T04:30:31.781Z,98100.41
2023-01-09T04:31:13.427Z,98129.59
2023-01-09T04:31:55.173Z,98125.53
2023-01-09T04:32:36.864Z,98132.63
2023-01-09T04:33:18.501Z,98106.53
2023-01-09T04:34:00.218Z,98112.19
2023-01-09T04:34:41.822Z,98142.41
2023-01-09T04:35:23.501Z,98146.06
2023-01-09T04:36:05.567Z,98145.03
2023-01-09T04:36:47.191Z,98148.69
2023-01-09T04:37:28.762Z,98144.44
2023-01-09T04:38:10.359Z,98151.94
2023-01-09T04:38:51.959Z,98148.72
2023-01-09T04:39:33.552Z,98158.41
2023-01-09T04:40:15.369Z,98152.38
2023-01-09T04:40:56.998Z,98160.06
2023-01-09T04:41:51.452Z,98165.13
2023-01-09T04:42:33.055Z,98144.25
2023-01-09T04:43:15.057Z,98174.03
2023-01-09T04:43:56.658Z,98169.78
2023-01-09T04:44:38.316Z,98176.28
2023-01-09T04:45:20.017Z,98171.81
2023-01-09T04:46:02.877Z,98179.53
2023-01-09T04:46:45.136Z,98142.63
2023-01-09T04:47:26.778Z,98181.16
2023-01-09T04:48:08.358Z,98175.06
2023-01-09T04:48:49.915Z,98179.94
2023-01-09T04:49:31.535Z,98141.84
2023-01-09T04:50:13.343Z,98129.47
2023-01-09T04:50:54.920Z,98188.88
2023-01-09T04:51:36.479Z,98170.81
2023-01-09T04:52:18.145Z,98186.22
2023-01-09T04:52:59.826Z,98155.59
2023-01-09T04:53:41.472Z,98185.81
2023-01-09T04:54:23.240Z,98182.38
2023-01-09T04:55:05.387Z,98188.66
2023-01-09T04:55:46.981Z,98194.94
2023-01-09T04:56:31.280Z,98167.97
2023-01-09T04:57:12.846Z,98200.41
2023-01-09T04:57:54.429Z,98158.66
2023-01-09T04:58:35.998Z,98203.69
2023-01-09T04:59:17.562Z,98196.34
2023-01-09T04:59:59.132Z,98176.72
2023-01-09T05:00:40.699Z,98202.66
2023-01-09T05:01:22.808Z,98179.16
2023-01-09T05:02:04.577Z,98208.34
2023-01-09T05:02:46.221Z,98201.84
2023-01-09T05:03:28.001Z,98195.38
2023-01-09T05:04:09.694Z,98197.59
2023-01-09T05:04:51.284Z,98213.19
2023-01-09T05:05:33.148Z,98223.72
2023-01-09T05:06:14.793Z,98219.28
2023-01-09T05:06:56.384Z,98211.78
2023-01-09T05:07:38.074Z,98217.88
2023-01-09T05:08:20.078Z,98192.13
2023-01-09T05:09:04.327Z,98213.22
2023-01-09T05:09:45.956Z,98221.31
2023-01-09T05:10:27.537Z,98213.59
2023-01-09T05:11:09.197Z,98193.53
2023-01-09T05:11:51.208Z,98210.75
2023-01-09T05:12:34.594Z,98188.44
2023-01-09T05:13:16.214Z,98220.91
2023-01-09T05:13:57.765Z,98213.19
2023-01-09T05:14:39.364Z,98220.47
2023-01-09T05:15:21.636Z,98228.78
2023-01-09T05:16:03.314Z,98217.25
2023-01-09T05:16:45.025Z,98208.09
2023-01-09T05:17:26.595Z,98232.66
2023-01-09T05:18:08.172Z,98235.28
2023-01-09T05:18:49.779Z,98237.31
2023-01-09T05:19:31.479Z,98203.25
2023-01-09T05:20:13.174Z,98227.78
2023-01-09T05:20:54.840Z,98220.88
2023-01-09T05:21:36.509Z,98233.28
2023-01-09T05:22:18.099Z,98235.69
2023-01-09T05:22:59.703Z,98233.03
2023-01-09T05:23:41.304Z,98209.53
2023-01-09T05:24:22.935Z,98171.41
2023-01-09T05:25:05.025Z,98242.38
2023-01-09T05:25:46.688Z,98225.13
2023-01-09T05:26:28.395Z,98242.78
2023-01-09T05:27:09.963Z,98239.56
2023-01-09T05:27:51.518Z,98237.13
2023-01-09T05:28:33.349Z,98233.03
2023-01-09T05:29:14.921Z,98190.84
2023-01-09T05:29:56.608Z,98255.38
2023-01-09T05:30:38.253Z,98242.59
2023-01-09T05:31:20.874Z,98239.13
2023-01-09T05:32:02.533Z,98241.97
2023-01-09T05:32:44.212Z,98265.09
2023-01-09T05:33:25.893Z,98264.47
2023-01-09T05:34:07.553Z,98262.66
2023-01-09T05:34:49.149Z,98264.06
2023-01-09T05:35:30.801Z,98256.97
2023-01-09T05:36:12.401Z,98269.94
2023-01-09T05:36:53.978Z,98264.63
2023-01-09T05:37:35.632Z,98254.50
2023-01-09T05:38:17.290Z,98289.19
2023-01-09T05:38:58.990Z,98283.31
2023-01-09T05:39:40.626Z,98250.66
2023-01-09T05:40:24.825Z,98288.19
2023-01-09T05:41:10.568Z,98277.66
2023-01-09T05:41:52.172Z,98249.66
2023-01-09T05:42:33.804Z,98280.72
2023-01-09T05:43:15.412Z,98252.47
2023-01-09T05:43:57.003Z,98281.50
2023-01-09T05:44:38.620Z,98227.09
2023-01-09T05:45:20.232Z,98277.03
2023-01-09T05:46:02.021Z,98278.47
2023-01-09T05:46:43.743Z,98266.31
2023-01-09T05:47:25.385Z,98287.81
2023-01-09T05:48:06.952Z,98275.00
2023-01-09T05:48:48.619Z,98278.84
2023-01-09T05:49:30.199Z,98265.06
2023-01-09T05:50:13.156Z,98199.06
2023-01-09T05:50:54.917Z,98266.66
2023-01-09T05:51:36.593Z,98275.19
2023-01-09T05:52:18.277Z,98281.25
2023-01-09T05:52:59.904Z,98290.22
2023-01-09T05:53:41.501Z,98289.59
2023-01-09T05:54:25.191Z,98278.81
2023-01-09T05:55:07.766Z,98297.50
2023-01-09T05:55:49.420Z,98304.78
2023-01-09T05:56:31.076Z,98300.09
2023-01-09T05:57:12.627Z,98274.13
2023-01-09T05:57:54.223Z,98302.72
2023-01-09T05:58:35.826Z,98304.53
2023-01-09T05:59:17.494Z,98304.34
2023-01-09T05:59:59.104Z,98308.81
2023-01-09T06:00:40.761Z,98301.09
2023-01-09T06:01:23.875Z,98269.81
2023-01-09T06:02:05.971Z,98291.75
2023-01-09T06:02:47.635Z,98305.53
2023-01-09T06:03:29.260Z,98286.66
2023-01-09T06:04:10.992Z,98310.81
2023-01-09T06:04:52.601Z,98318.72
2023-01-09T06:05:34.286Z,98306.13
2023-01-09T06:06:15.914Z,98298.41
2023-01-09T06:06:57.579Z,98311.59
2023-01-09T06:07:40.604Z,98315.66
2023-01-09T06:08:22.266Z,98307.56
2023-01-09T06:09:03.919Z,98322.94
2023-01-09T06:09:45.536Z,98319.69
2023-01-09T06:10:27.190Z,98332.66
2023-01-09T06:11:08.806Z,98318.91
2023-01-09T06:11:50.605Z,98308.50
2023-01-09T06:12:32.248Z,98323.75
2023-01-09T06:13:14.257Z,98307.06
2023-01-09T06:13:55.853Z,98336.28
2023-01-09T06:14:37.477Z,98324.75
2023-01-09T06:15:20.533Z,98328.56
2023-01-09T06:16:02.146Z,98319.25
2023-01-09T06:16:43.906Z,98321.72
2023-01-09T06:17:25.540Z,98325.13
2023-01-09T06:18:07.210Z,98245.75
2023-01-09T06:18:48.842Z,98324.75
2023-01-09T06:19:30.438Z,98319.47
2023-01-09T06:20:12.112Z,98327.38
2023-01-09T06:20:53.728Z,98338.78
2023-01-09T06:21:35.300Z,98324.19
2023-01-09T06:22:17.044Z,98315.84
2023-01-09T06:22:58.655Z,98300.00
2023-01-09T06:23:40.325Z,98318.91
2023-01-09T06:24:21.932Z,98329.47
2023-01-09T06:25:03.923Z,98333.50
2023-01-09T06:25:45.517Z,98335.97
2023-01-09T06:26:27.218Z,98325.19
2023-01-09T06:27:08.795Z,98306.88
2023-01-09T06:27:52.076Z,98323.56
2023-01-09T06:28:33.797Z,98315.84
2023-01-09T06:29:15.361Z,98310.94
2023-01-09T06:29:56.906Z,98336.78
2023-01-09T06:30:38.522Z,98311.34
2023-01-09T06:31:20.137Z,98275.84
2023-01-09T06:32:01.724Z,98305.88
2023-01-09T06:32:43.299Z,98340.22
2023-01-09T06:33:24.961Z,98313.19
2023-01-09T06:34:06.566Z,98319.69
2023-01-09T06:34:48.180Z,98346.94
2023-01-09T06:35:29.798Z,98331.50
2023-01-09T06:36:11.382Z,98324.59
2023-01-09T06:36:52.985Z,98350.00
2023-01-09T06:37:34.740Z,98351.81
2023-01-09T06:38:16.434Z,98340.66
2023-01-09T06:38:58.053Z,98348.56
2023-01-09T06:39:39.676Z,98348.38
2023-01-09T06:40:21.351Z,98343.28
2023-01-09T06:41:02.960Z,98341.66
2023-01-09T06:41:47.070Z,98334.34
2023-01-09T06:42:29.986Z,98355.47
2023-01-09T06:43:11.648Z,98357.09
2023-01-09T06:43:53.369Z,98333.09
2023-01-09T06:44:36.641Z,98362.75
2023-01-09T06:45:18.411Z,98361.13
2023-01-09T06:46:00.116Z,98360.09
2023-01-09T06:46:41.833Z,98361.94
2023-01-09T06:47:23.438Z,98362.75
2023-01-09T06:48:05.236Z,98360.72
2023-01-09T06:48:46.786Z,98368.81
2023-01-09T06:49:28.568Z,98368.81
2023-01-09T06:50:11.101Z,98359.69
2023-01-09T06:50:53.531Z,98369.63
2023-01-09T06:51:35.527Z,98356.59
2023-01-09T06:52:17.132Z,98371.84
2023-01-09T06:52:58.748Z,98345.63
2023-01-09T06:53:40.522Z,98360.66
2023-01-09T06:54:22.536Z,98371.66
2023-01-09T06:55:04.747Z,98353.16
2023-01-09T06:55:46.699Z,98366.16
2023-01-09T06:56:28.274Z,98358.84
2023-01-09T06:57:10.384Z,98376.53
2023-01-09T06:57:52.522Z,98370.84
2023-01-09T06:58:34.112Z,98369.84
2023-01-09T06:59:15.665Z,98359.09
2023-01-09T06:59:57.835Z,98374.09
2023-01-09T07:00:39.464Z,98374.09
2023-01-09T07:01:21.414Z,98371.47
2023-01-09T07:02:03.236Z,98376.75
2023-01-09T07:02:44.916Z,98368.66
2023-01-09T07:03:26.544Z,98358.09
2023-01-09T07:04:10.880Z,98354.41
2023-01-09T07:04:52.637Z,98368.25
2023-01-09T07:05:40.063Z,98374.16
2023-01-09T07:06:21.922Z,98360.75
2023-01-09T07:07:03.542Z,98311.38
2023-01-09T07:07:45.145Z,98369.25
2023-01-09T07:08:26.852Z,98371.72
2023-01-09T07:09:08.591Z,98359.53
2023-01-09T07:09:50.286Z,98345.75
2023-01-09T07:10:31.903Z,98361.78
2023-01-09T07:11:13.491Z,98362.59
2023-01-09T07:11:55.036Z,98361.59
2023-01-09T07:12:36.711Z,98360.16
2023-01-09T07:13:18.315Z,98359.19
2023-01-09T07:13:59.979Z,98365.28
2023-01-09T07:14:41.801Z,98349.63
2023-01-09T07:15:23.457Z,98358.56
2023-01-09T07:16:05.543Z,98362.25
2023-01-09T07:16:47.211Z,98367.72
2023-01-09T07:17:28.802Z,98371.78
2023-01-09T07:18:10.362Z,98367.72
2023-01-09T07:18:52.482Z,98371.41
2023-01-09T07:19:34.054Z,98332.22
2023-01-09T07:20:16.336Z,98369.97
2023-01-09T07:20:57.939Z,98366.72
2023-01-09T07:21:39.566Z,98328.72
2023-01-09T07:22:21.171Z,98360.25
2023-01-09T07:23:02.764Z,98355.13
2023-01-09T07:23:44.349Z,98353.13
2023-01-09T07:24:25.907Z,98359.00
2023-01-09T07:25:07.835Z,98341.53
2023-01-09T07:25:51.711Z,98366.09
2023-01-09T07:26:33.333Z,98355.31
2023-01-09T07:27:15.025Z,98360.22
2023-01-09T07:27:56.631Z,98360.41
2023-01-09T07:28:38.405Z,98326.28
2023-01-09T07:29:20.075Z,98369.53
2023-01-09T07:30:01.831Z,98359.59
2023-01-09T07:30:43.463Z,98367.34
2023-01-09T07:31:25.178Z,98373.22
2023-01-09T07:32:07.174Z,98381.13
2023-01-09T07:32:48.737Z,98346.78
2023-01-09T07:33:30.697Z,98377.66
2023-01-09T07:34:12.316Z,98370.56
2023-01-09T07:34:53.950Z,98364.84
2023-01-09T07:35:35.564Z,98356.31
2023-01-09T07:36:17.203Z,98366.50
2023-01-09T07:36:58.910Z,98378.50
2023-01-09T07:37:40.598Z,98381.34
2023-01-09T07:38:22.252Z,98377.06
2023-01-09T07:39:03.818Z,98379.28
2023-01-09T07:39:45.537Z,98373.38
2023-01-09T07:40:27.200Z,98388.00
2023-01-09T07:41:08.960Z,98385.38
2023-01-09T07:41:50.628Z,98382.53
2023-01-09T07:42:32.519Z,98379.09
2023-01-09T07:43:14.230Z,98372.63
2023-01-09T07:43:57.136Z,98386.03
2023-01-09T07:44:38.774Z,98386.41
2023-01-09T07:45:20.382Z,98369.16
2023-01-09T07:46:02.037Z,98388.44
2023-01-09T07:46:43.896Z,98379.47
2023-01-09T07:47:25.550Z,98362.59
2023-01-09T07:48:07.158Z,98387.19
2023-01-09T07:48:48.759Z,98374.00
2023-01-09T07:49:30.392Z,98399.16
2023-01-09T07:50:12.087Z,98378.69
2023-01-09T07:50:53.728Z,98395.72
2023-01-09T07:51:35.470Z,98395.72
2023-01-09T07:52:17.033Z,98393.09
2023-01-09T07:52:58.647Z,98385.16
2023-01-09T07:53:40.283Z,98380.72
2023-01-09T07:54:22.195Z,98398.59
2023-01-09T07:55:04.095Z,98392.06
2023-01-09T07:55:45.734Z,98383.31
2023-01-09T07:56:27.362Z,98395.53
2023-01-09T07:57:08.989Z,98395.13
2023-01-09T07:57:51.225Z,98395.94
2023-01-09T07:58:32.865Z,98406.50
2023-01-09T07:59:14.478Z,98409.13
2023-01-09T07:59:56.539Z,98395.72
2023-01-09T08:00:38.361Z,98400.63
2023-01-09T08:01:20.091Z,98386.59
2023-01-09T08:02:05.488Z,98396.56
2023-01-09T08:02:54.100Z,98404.91
2023-01-09T08:03:38.434Z,98407.34
2023-01-09T08:04:20.125Z,98399.66
2023-01-09T08:05:01.773Z,98366.13
2023-01-09T08:05:43.532Z,98410.22
2023-01-09T08:06:25.183Z,98403.69
2023-01-09T08:07:06.821Z,98390.72
2023-01-09T08:07:51.666Z,98401.25
2023-01-09T08:08:33.642Z,98413.63
2023-01-09T08:09:15.416Z,98392.94
2023-01-09T08:09:57.041Z,98409.81
2023-01-09T08:10:38.662Z,98391.53
2023-01-09T08:11:20.365Z,98412.66
2023-01-09T08:12:04.101Z,98411.63
2023-01-09T08:12:47.143Z,98395.38
2023-01-09T08:13:28.805Z,98395.78
2023-01-09T08:14:10.427Z,98413.06
2023-01-09T08:14:52.085Z,98412.06
2023-01-09T08:15:33.808Z,98406.94
2023-01-09T08:16:16.079Z,98394.81
2023-01-09T08:16:57.669Z,98412.25
2023-01-09T08:17:43.754Z,98420.59
2023-01-09T08:18:25.440Z,98413.69
2023-01-09T08:19:07.274Z,98425.66
2023-01-09T08:19:48.883Z,98417.75
2023-01-09T08:20:30.488Z,98413.91
2023-01-09T08:21:12.389Z,98419.38
2023-01-09T08:21:54.032Z,98353.38
2023-01-09T08:22:35.636Z,98422.81
2023-01-09T08:23:17.213Z,98414.09
2023-01-09T08:23:58.797Z,98415.09
2023-01-09T08:24:40.380Z,98396.41
2023-01-09T08:25:22.185Z,98410.41
2023-01-09T08:26:04.658Z,98417.50
2023-01-09T08:26:46.301Z,98414.66
2023-01-09T08:27:28.052Z,98420.56
2023-01-09T08:28:09.762Z,98415.28
2023-01-09T08:28:51.404Z,98398.63
2023-01-09T08:29:33.048Z,98426.22
2023-01-09T08:30:15.579Z,98423.59
2023-01-09T08:30:57.296Z,98419.75
2023-01-09T08:31:39.034Z,98359.63
2023-01-09T08:32:20.650Z,98393.53
2023-01-09T08:33:02.355Z,98417.72
2023-01-09T08:33:44.383Z,98402.50